createdAt,value
2022-08-31T00:00:09.659Z,83.11
2022-08-31T00:01:09.864Z,83.31
2022-08-31T00:02:10.133Z,83.01
2022-08-31T00:03:10.363Z,83.61
2022-08-31T00:04:10.615Z,83.72
2022-08-31T00:05:10.795Z,83.41
2022-08-31T00:06:11.019Z,83.72
2022-08-31T00:07:11.272Z,83.92
2022-08-31T00:08:11.507Z,84.12
2022-08-31T00:09:11.723Z,83.72
2022-08-31T00:10:11.968Z,83.61
2022-08-31T00:11:12.167Z,83.61
2022-08-31T00:12:12.397Z,84.02
2022-08-31T00:13:12.616Z,83.92
2022-08-31T00:14:13.514Z,83.82
2022-08-31T00:15:13.085Z,83.92
2022-08-31T00:16:13.489Z,84.33
2022-08-31T00:17:13.504Z,84.02
2022-08-31T00:18:13.703Z,84.12
2022-08-31T00:19:13.910Z,84.02
2022-08-31T00:20:32.538Z,84.12
2022-08-31T00:21:15.291Z,84.12
2022-08-31T00:22:14.553Z,84.33
2022-08-31T00:23:14.737Z,84.36
2022-08-31T00:24:14.922Z,84.56
2022-08-31T00:25:15.135Z,84.47
2022-08-31T00:26:15.353Z,85.07
2022-08-31T00:27:15.611Z,85.07
2022-08-31T00:28:15.804Z,84.97
2022-08-31T00:29:16.022Z,85.27
2022-08-31T00:30:16.236Z,85.17
2022-08-31T00:31:16.475Z,84.87
2022-08-31T00:32:16.714Z,85.38
2022-08-31T00:33:17.204Z,85.07
2022-08-31T00:34:17.184Z,84.87
2022-08-31T00:35:17.395Z,85.07
2022-08-31T00:36:17.622Z,85.07
2022-08-31T00:37:17.862Z,85.38
2022-08-31T00:38:18.100Z,85.48
2022-08-31T00:39:18.321Z,85.48
2022-08-31T00:40:18.628Z,85.52
2022-08-31T00:41:18.741Z,85.78
2022-08-31T00:42:18.979Z,85.62
2022-08-31T00:43:19.384Z,85.58
2022-08-31T00:44:19.432Z,85.62
2022-08-31T00:45:19.700Z,85.82
2022-08-31T00:46:19.909Z,86.33
2022-08-31T00:47:20.133Z,85.88
2022-08-31T00:48:20.349Z,85.82
2022-08-31T00:49:20.561Z,85.93
2022-08-31T00:50:20.774Z,86.13
2022-08-31T00:51:21.000Z,86.02
2022-08-31T00:52:21.218Z,85.93
2022-08-31T00:53:21.430Z,86.13
2022-08-31T00:54:21.643Z,86.13
2022-08-31T00:55:21.858Z,86.43
2022-08-31T00:56:22.042Z,86.33
2022-08-31T00:57:34.240Z,86.33
2022-08-31T00:58:23.452Z,86.22
2022-08-31T00:59:22.678Z,86.73
2022-08-31T01:00:22.889Z,86.53
2022-08-31T01:01:23.117Z,86.73
2022-08-31T01:02:23.405Z,86.63
2022-08-31T01:03:23.521Z,86.94
2022-08-31T01:04:23.726Z,86.94
2022-08-31T01:05:23.949Z,86.63
2022-08-31T01:06:24.151Z,87.24
2022-08-31T01:07:24.384Z,87.04
2022-08-31T01:08:28.058Z,86.94
2022-08-31T01:09:25.761Z,86.73
2022-08-31T01:10:24.964Z,86.73
2022-08-31T01:11:25.158Z,86.88
2022-08-31T01:12:25.376Z,86.88
2022-08-31T01:13:25.548Z,86.98
2022-08-31T01:14:25.790Z,87.08
2022-08-31T01:15:25.983Z,87.38
2022-08-31T01:16:26.298Z,87.28
2022-08-31T01:17:26.428Z,87.38
2022-08-31T01:18:26.662Z,87.28
2022-08-31T01:19:26.859Z,87.69
2022-08-31T01:20:27.087Z,87.59
2022-08-31T01:21:27.275Z,87.69
2022-08-31T01:22:27.507Z,87.69
2022-08-31T01:23:27.714Z,87.59
2022-08-31T01:24:27.927Z,88.09
2022-08-31T01:25:33.627Z,87.89
2022-08-31T01:26:29.322Z,87.69
2022-08-31T01:27:28.544Z,87.99
2022-08-31T01:28:28.753Z,87.79
2022-08-31T01:29:28.968Z,88.09
2022-08-31T01:30:29.166Z,88.09
2022-08-31T01:31:29.475Z,87.89
2022-08-31T01:32:29.597Z,87.99
2022-08-31T01:33:29.801Z,87.99
2022-08-31T01:34:30.039Z,87.99
2022-08-31T01:35:30.264Z,87.89
2022-08-31T01:36:30.468Z,87.89
2022-08-31T01:37:30.707Z,88.29
2022-08-31T01:38:30.910Z,88.20
2022-08-31T01:39:31.120Z,88.09
2022-08-31T01:40:31.395Z,88.20
2022-08-31T01:41:31.581Z,88.20
2022-08-31T01:42:33.499Z,88.29
2022-08-31T01:43:32.072Z,88.09
2022-08-31T01:44:32.303Z,88.09
2022-08-31T01:45:32.542Z,88.70
2022-08-31T01:46:32.815Z,88.20
2022-08-31T01:47:32.936Z,88.20
2022-08-31T01:48:33.141Z,88.09
2022-08-31T01:49:33.392Z,88.70
2022-08-31T01:50:33.590Z,88.40
2022-08-31T01:51:33.787Z,88.34
2022-08-31T01:52:34.016Z,88.29
2022-08-31T01:53:34.221Z,88.49
2022-08-31T01:54:34.432Z,88.40
2022-08-31T01:55:34.640Z,88.34
2022-08-31T01:56:34.850Z,88.44
2022-08-31T01:57:35.071Z,88.84
2022-08-31T01:58:35.276Z,88.80
2022-08-31T01:59:35.480Z,88.49
2022-08-31T02:00:35.730Z,88.40
2022-08-31T02:01:35.978Z,88.49
2022-08-31T02:02:36.187Z,88.44
2022-08-31T02:03:36.279Z,88.34
2022-08-31T02:04:36.498Z,88.40
2022-08-31T02:05:36.697Z,88.70
2022-08-31T02:06:36.909Z,88.70
2022-08-31T02:07:37.134Z,88.70
2022-08-31T02:08:37.354Z,88.70
2022-08-31T02:09:37.593Z,88.80
2022-08-31T02:10:37.807Z,88.90
2022-08-31T02:11:38.019Z,88.60
2022-08-31T02:12:38.260Z,88.60
2022-08-31T02:13:38.461Z,88.70
2022-08-31T02:14:38.680Z,88.09
2022-08-31T02:15:38.890Z,88.60
2022-08-31T02:16:39.274Z,88.80
2022-08-31T02:17:39.307Z,88.46
2022-08-31T02:18:39.521Z,88.05
2022-08-31T02:19:39.731Z,87.74
2022-08-31T02:20:39.948Z,88.05
2022-08-31T02:21:40.163Z,87.95
2022-08-31T02:22:40.404Z,87.74
2022-08-31T02:23:40.604Z,87.45
2022-08-31T02:24:40.810Z,87.74
2022-08-31T02:25:41.015Z,87.54
2022-08-31T02:26:41.226Z,87.51
2022-08-31T02:27:41.492Z,87.20
2022-08-31T02:28:41.691Z,87.10
2022-08-31T02:29:41.886Z,87.30
2022-08-31T02:30:42.106Z,87.30
2022-08-31T02:31:42.368Z,87.10
2022-08-31T02:32:42.593Z,87.00
2022-08-31T02:33:42.801Z,87.00
2022-08-31T02:34:43.011Z,86.90
2022-08-31T02:35:43.206Z,87.20
2022-08-31T02:36:43.456Z,86.69
2022-08-31T02:37:43.613Z,86.69
2022-08-31T02:38:43.840Z,86.59
2022-08-31T02:39:44.044Z,86.55
2022-08-31T02:40:44.286Z,86.55
2022-08-31T02:41:44.407Z,86.35
2022-08-31T02:42:52.956Z,86.45
2022-08-31T02:43:45.779Z,86.25
2022-08-31T02:44:44.982Z,86.05
2022-08-31T02:45:45.183Z,86.35
2022-08-31T02:46:46.423Z,86.25
2022-08-31T02:47:45.510Z,86.25
2022-08-31T02:48:45.713Z,86.25
2022-08-31T02:49:45.924Z,86.45
2022-08-31T02:50:46.114Z,86.25
2022-08-31T02:51:46.325Z,86.45
2022-08-31T02:52:46.553Z,86.55
2022-08-31T02:53:46.756Z,86.05
2022-08-31T02:54:46.964Z,86.15
2022-08-31T02:55:47.186Z,86.55
2022-08-31T02:56:47.384Z,86.35
2022-08-31T02:57:47.612Z,86.76
2022-08-31T02:58:47.811Z,86.45
2022-08-31T02:59:48.022Z,86.35
2022-08-31T03:00:48.228Z,86.15
2022-08-31T03:01:48.490Z,86.05
2022-08-31T03:02:48.678Z,86.15
2022-08-31T03:03:48.889Z,86.15
2022-08-31T03:04:49.048Z,86.65
2022-08-31T03:05:49.292Z,86.25
2022-08-31T03:06:49.521Z,86.65
2022-08-31T03:07:49.758Z,86.85
2022-08-31T03:08:49.968Z,86.76
2022-08-31T03:09:50.189Z,86.65
2022-08-31T03:10:50.392Z,87.05
2022-08-31T03:11:50.612Z,86.55
2022-08-31T03:12:50.843Z,86.55
2022-08-31T03:13:54.159Z,86.65
2022-08-31T03:14:52.233Z,86.85
2022-08-31T03:15:51.487Z,87.00
2022-08-31T03:16:51.929Z,87.20
2022-08-31T03:17:51.895Z,87.40
2022-08-31T03:18:52.094Z,87.30
2022-08-31T03:19:52.313Z,87.16
2022-08-31T03:20:52.523Z,87.00
2022-08-31T03:21:56.199Z,87.20
2022-08-31T03:22:52.915Z,87.00
2022-08-31T03:23:53.125Z,87.10
2022-08-31T03:24:53.330Z,87.20
2022-08-31T03:25:53.545Z,87.51
2022-08-31T03:26:53.756Z,87.60
2022-08-31T03:27:53.997Z,87.40
2022-08-31T03:28:54.204Z,87.60
2022-08-31T03:29:54.420Z,87.60
2022-08-31T03:30:54.679Z,87.30
2022-08-31T03:31:54.894Z,87.51
2022-08-31T03:32:55.142Z,87.60
2022-08-31T03:33:56.305Z,87.81
2022-08-31T03:34:55.527Z,88.01
2022-08-31T03:35:55.752Z,87.95
2022-08-31T03:36:55.967Z,88.25
2022-08-31T03:37:56.270Z,88.35
2022-08-31T03:38:56.388Z,88.56
2022-08-31T03:39:56.607Z,88.66
2022-08-31T03:40:56.820Z,88.66
2022-08-31T03:41:57.051Z,88.76
2022-08-31T03:42:57.296Z,89.17
2022-08-31T03:43:57.521Z,89.37
2022-08-31T03:44:57.742Z,89.26
2022-08-31T03:45:58.010Z,89.17
2022-08-31T03:46:58.207Z,89.17
2022-08-31T03:47:58.483Z,89.17
2022-08-31T03:48:58.695Z,89.21
2022-08-31T03:49:58.917Z,89.31
2022-08-31T03:50:59.132Z,89.41
2022-08-31T03:51:59.357Z,89.61
2022-08-31T03:52:59.586Z,89.51
2022-08-31T03:53:59.818Z,89.41
2022-08-31T03:55:00.034Z,89.51
2022-08-31T03:56:00.251Z,89.51
2022-08-31T03:57:00.465Z,89.72
2022-08-31T03:58:00.703Z,89.72
2022-08-31T03:59:00.932Z,89.81
2022-08-31T04:00:01.146Z,89.81
2022-08-31T04:01:01.355Z,89.61
2022-08-31T04:02:01.659Z,89.72
2022-08-31T04:03:01.876Z,89.72
2022-08-31T04:04:01.959Z,90.12
2022-08-31T04:05:02.173Z,89.92
2022-08-31T04:06:02.390Z,89.92
2022-08-31T04:07:02.604Z,89.92
2022-08-31T04:08:02.847Z,89.92
2022-08-31T04:09:03.052Z,90.02
2022-08-31T04:10:03.262Z,90.02
2022-08-31T04:11:03.478Z,90.16
2022-08-31T04:12:03.685Z,90.26
2022-08-31T04:13:04.697Z,90.47
2022-08-31T04:14:04.072Z,90.36
2022-08-31T04:15:04.278Z,90.26
2022-08-31T04:16:04.544Z,90.36
2022-08-31T04:17:04.744Z,90.47
2022-08-31T04:18:04.982Z,90.77
2022-08-31T04:19:05.201Z,90.67
2022-08-31T04:20:05.472Z,90.97
2022-08-31T04:21:05.687Z,90.67
2022-08-31T04:22:05.898Z,91.08
2022-08-31T04:23:06.143Z,90.88
2022-08-31T04:24:06.349Z,90.57
2022-08-31T04:25:06.560Z,90.77
2022-08-31T04:26:06.769Z,90.47
2022-08-31T04:27:06.976Z,90.67
2022-08-31T04:28:07.198Z,90.67
2022-08-31T04:29:12.249Z,90.67
2022-08-31T04:30:08.582Z,90.88
2022-08-31T04:31:07.801Z,90.97
2022-08-31T04:32:07.990Z,90.88
2022-08-31T04:33:08.225Z,90.67
2022-08-31T04:34:08.440Z,90.67
2022-08-31T04:35:08.663Z,90.92
2022-08-31T04:36:08.948Z,91.02
2022-08-31T04:37:09.075Z,91.12
2022-08-31T04:38:10.098Z,91.28
2022-08-31T04:39:09.468Z,91.12
2022-08-31T04:40:16.698Z,90.81
2022-08-31T04:41:09.965Z,90.92
2022-08-31T04:42:10.187Z,91.02
2022-08-31T04:43:10.419Z,90.92
2022-08-31T04:44:10.638Z,91.12
2022-08-31T04:45:10.867Z,91.42
2022-08-31T04:46:11.136Z,91.32
2022-08-31T04:47:11.339Z,90.97
2022-08-31T04:48:11.568Z,91.08
2022-08-31T04:49:11.778Z,91.02
2022-08-31T04:50:11.997Z,91.02
2022-08-31T04:51:12.210Z,90.92
2022-08-31T04:52:12.428Z,91.02
2022-08-31T04:53:12.653Z,91.32
2022-08-31T04:54:12.898Z,90.97
2022-08-31T04:55:13.109Z,90.97
2022-08-31T04:56:13.335Z,90.67
2022-08-31T04:57:13.556Z,90.67
2022-08-31T04:58:13.931Z,90.77
2022-08-31T04:59:13.969Z,90.88
2022-08-31T05:00:14.181Z,90.16
2022-08-31T05:01:14.436Z,90.36
2022-08-31T05:02:14.784Z,90.36
2022-08-31T05:03:14.915Z,90.26
2022-08-31T05:04:15.137Z,90.26
2022-08-31T05:05:15.345Z,90.36
2022-08-31T05:06:15.625Z,90.16
2022-08-31T05:07:15.843Z,90.47
2022-08-31T05:08:16.076Z,90.47
2022-08-31T05:09:16.279Z,90.32
2022-08-31T05:10:16.503Z,90.02
2022-08-31T05:11:16.724Z,89.72
2022-08-31T05:12:16.938Z,89.41
2022-08-31T05:13:17.326Z,89.41
2022-08-31T05:14:17.316Z,89.17
2022-08-31T05:15:17.532Z,88.86
2022-08-31T05:16:17.856Z,88.96
2022-08-31T05:17:18.019Z,88.66
2022-08-31T05:18:18.252Z,88.66
2022-08-31T05:19:18.458Z,88.46
2022-08-31T05:20:18.674Z,88.66
2022-08-31T05:21:18.883Z,88.05
2022-08-31T05:22:19.089Z,87.95
2022-08-31T05:23:19.500Z,87.81
2022-08-31T05:24:19.479Z,87.71
2022-08-31T05:25:19.693Z,87.34
2022-08-31T05:26:23.522Z,87.71
2022-08-31T05:27:21.062Z,87.81
2022-08-31T05:28:20.277Z,87.60
2022-08-31T05:29:20.479Z,87.20
2022-08-31T05:30:20.691Z,87.00
2022-08-31T05:31:21.082Z,87.20
2022-08-31T05:32:21.113Z,86.49
2022-08-31T05:33:21.392Z,86.49
2022-08-31T05:34:21.593Z,86.69
2022-08-31T05:35:21.792Z,86.35
2022-08-31T05:36:22.008Z,86.15
2022-08-31T05:37:24.326Z,85.74
2022-08-31T05:38:22.480Z,86.15
2022-08-31T05:39:22.683Z,86.15
2022-08-31T05:40:22.968Z,86.35
2022-08-31T05:41:23.059Z,85.54
2022-08-31T05:42:23.265Z,85.64
2022-08-31T05:43:23.498Z,85.70
2022-08-31T05:44:27.687Z,84.79
2022-08-31T05:45:24.867Z,85.10
2022-08-31T05:46:24.101Z,84.69
2022-08-31T05:47:24.315Z,84.48
2022-08-31T05:48:30.065Z,83.98
2022-08-31T05:49:27.932Z,83.78
2022-08-31T05:50:24.962Z,83.88
2022-08-31T05:51:25.155Z,84.28
2022-08-31T05:52:25.399Z,83.84
2022-08-31T05:53:25.587Z,83.84
2022-08-31T05:54:25.878Z,83.33
2022-08-31T05:55:26.055Z,83.23
2022-08-31T05:56:26.502Z,83.09
2022-08-31T05:57:26.987Z,82.79
2022-08-31T05:58:26.658Z,82.39
2022-08-31T05:59:26.874Z,81.88
2022-08-31T06:00:27.076Z,82.18
2022-08-31T06:01:27.341Z,82.18
2022-08-31T06:02:27.538Z,82.79
2022-08-31T06:03:27.688Z,82.85
2022-08-31T06:04:27.899Z,81.23
2022-08-31T06:05:28.135Z,81.13
2022-08-31T06:06:28.313Z,81.03
2022-08-31T06:07:28.516Z,80.49
2022-08-31T06:08:28.733Z,79.99
2022-08-31T06:09:28.926Z,80.79
2022-08-31T06:10:29.135Z,80.35
2022-08-31T06:11:29.358Z,79.24
2022-08-31T06:12:29.554Z,78.74
2022-08-31T06:13:29.758Z,78.94
2022-08-31T06:14:29.973Z,78.84
2022-08-31T06:15:31.122Z,78.03
2022-08-31T06:16:30.436Z,78.39
2022-08-31T06:17:30.616Z,77.49
2022-08-31T06:18:30.818Z,77.15
2022-08-31T06:19:31.005Z,77.66
2022-08-31T06:20:31.213Z,76.54
2022-08-31T06:21:31.401Z,76.71
2022-08-31T06:22:31.598Z,75.90
2022-08-31T06:23:31.811Z,75.30
2022-08-31T06:24:32.008Z,75.26
2022-08-31T06:25:32.187Z,75.93
2022-08-31T06:26:32.378Z,74.22
2022-08-31T06:27:32.570Z,73.61
2022-08-31T06:28:32.778Z,74.02
2022-08-31T06:29:32.958Z,74.02
2022-08-31T06:30:33.159Z,73.68
2022-08-31T06:31:33.552Z,73.28
2022-08-31T06:32:33.526Z,72.54
2022-08-31T06:33:33.714Z,72.14
2022-08-31T06:34:33.897Z,71.53
2022-08-31T06:35:34.099Z,71.83
2022-08-31T06:36:34.284Z,71.83
2022-08-31T06:37:34.520Z,71.23
2022-08-31T06:38:34.707Z,71.83
2022-08-31T06:39:34.909Z,72.64
2022-08-31T06:40:35.156Z,71.40
2022-08-31T06:41:36.847Z,71.30
2022-08-31T06:42:35.535Z,71.06
2022-08-31T06:43:35.723Z,69.96
2022-08-31T06:44:35.914Z,69.82
2022-08-31T06:45:36.093Z,69.19
2022-08-31T06:46:36.313Z,68.18
2022-08-31T06:47:36.479Z,68.05
2022-08-31T06:48:36.709Z,66.52
2022-08-31T06:49:36.893Z,66.65
2022-08-31T06:50:37.067Z,65.52
2022-08-31T06:51:37.243Z,64.89
2022-08-31T06:52:39.067Z,65.39
2022-08-31T06:53:37.566Z,63.75
2022-08-31T06:54:37.757Z,61.89
2022-08-31T06:55:37.933Z,61.66
2022-08-31T06:56:38.104Z,61.13
2022-08-31T06:57:38.296Z,60.53
2022-08-31T06:58:38.488Z,60.31
2022-08-31T06:59:38.680Z,60.24
2022-08-31T07:00:38.850Z,60.59
2022-08-31T07:01:39.102Z,61.87
2022-08-31T07:02:39.270Z,60.83
2022-08-31T07:03:39.338Z,59.21
2022-08-31T07:04:39.524Z,58.75
2022-08-31T07:05:39.701Z,57.95
2022-08-31T07:06:39.882Z,57.88
2022-08-31T07:07:40.073Z,58.31
2022-08-31T07:08:40.268Z,58.61
2022-08-31T07:09:40.455Z,58.31
2022-08-31T07:10:40.640Z,57.61
2022-08-31T07:11:44.275Z,58.94
2022-08-31T07:12:40.981Z,58.01
2022-08-31T07:13:41.186Z,57.95
2022-08-31T07:14:41.369Z,56.30
2022-08-31T07:15:42.482Z,55.55
2022-08-31T07:16:41.700Z,53.61
2022-08-31T07:17:41.874Z,53.81
2022-08-31T07:18:42.064Z,53.31
2022-08-31T07:19:44.769Z,52.39
2022-08-31T07:20:42.340Z,53.16
2022-08-31T07:21:42.520Z,52.09
2022-08-31T07:22:42.689Z,52.22
2022-08-31T07:23:42.873Z,53.14
2022-08-31T07:24:43.045Z,52.62
2022-08-31T07:25:43.200Z,52.04
2022-08-31T07:26:43.380Z,53.39
2022-08-31T07:27:43.550Z,53.49
2022-08-31T07:28:43.729Z,53.86
2022-08-31T07:29:43.909Z,53.44
2022-08-31T07:30:44.112Z,52.44
2022-08-31T07:31:44.257Z,52.84
2022-08-31T07:32:44.421Z,52.42
2022-08-31T07:33:44.606Z,52.51
2022-08-31T07:34:44.770Z,52.19
2022-08-31T07:35:44.940Z,51.60
2022-08-31T07:36:45.113Z,51.07
2022-08-31T07:37:45.281Z,51.54
2022-08-31T07:38:45.455Z,50.65
2022-08-31T07:39:45.624Z,50.53
2022-08-31T07:40:45.841Z,50.63
2022-08-31T07:41:45.930Z,49.32
2022-08-31T07:42:46.097Z,49.41
2022-08-31T07:43:46.326Z,49.54
2022-08-31T07:44:53.452Z,49.86
2022-08-31T07:45:47.531Z,48.84
2022-08-31T07:46:46.580Z,48.72
2022-08-31T07:47:46.693Z,49.54
2022-08-31T07:48:46.864Z,51.05
2022-08-31T07:49:47.024Z,50.23
2022-08-31T07:50:47.253Z,49.34
2022-08-31T07:51:47.312Z,49.24
2022-08-31T07:52:47.521Z,49.56
2022-08-31T07:53:47.795Z,50.73
2022-08-31T07:54:47.660Z,49.34
2022-08-31T07:55:47.825Z,49.07
2022-08-31T07:56:47.987Z,48.35
2022-08-31T07:57:48.136Z,47.71
2022-08-31T07:58:48.312Z,46.30
2022-08-31T07:59:48.494Z,46.48
2022-08-31T08:00:48.525Z,45.61
2022-08-31T08:01:48.753Z,45.43
2022-08-31T08:02:52.758Z,47.66
2022-08-31T08:03:48.950Z,47.44
2022-08-31T08:04:49.092Z,46.25
2022-08-31T08:05:49.251Z,46.03
2022-08-31T08:06:49.404Z,45.41
2022-08-31T08:07:54.671Z,44.82
2022-08-31T08:09:12.686Z,45.21
2022-08-31T08:09:50.741Z,44.10
2022-08-31T08:10:52.612Z,44.80
2022-08-31T08:11:50.035Z,44.20
2022-08-31T08:12:51.230Z,44.80
2022-08-31T08:13:50.212Z,44.40
2022-08-31T08:14:50.351Z,43.21
2022-08-31T08:15:50.515Z,43.61
2022-08-31T08:16:50.623Z,45.01
2022-08-31T08:17:50.682Z,44.64
2022-08-31T08:18:50.807Z,45.83
2022-08-31T08:19:50.953Z,44.42
2022-08-31T08:20:51.083Z,44.31
2022-08-31T08:21:51.228Z,43.73
2022-08-31T08:22:55.321Z,44.38
2022-08-31T08:23:51.486Z,42.68
2022-08-31T08:24:51.657Z,44.09
2022-08-31T08:25:51.672Z,42.97
2022-08-31T08:26:54.280Z,41.79
2022-08-31T08:27:51.903Z,42.22
2022-08-31T08:28:52.057Z,41.31
2022-08-31T08:29:52.193Z,41.20
2022-08-31T08:30:52.334Z,40.29
2022-08-31T08:31:52.501Z,40.66
2022-08-31T08:32:52.533Z,40.33
2022-08-31T08:33:52.859Z,42.19
2022-08-31T08:34:52.773Z,43.43
2022-08-31T08:35:53.005Z,45.04
2022-08-31T08:36:52.914Z,44.07
2022-08-31T08:37:59.103Z,45.53
2022-08-31T08:38:54.104Z,44.68
2022-08-31T08:39:53.226Z,43.27
2022-08-31T08:40:53.346Z,42.83
2022-08-31T08:41:53.439Z,41.63
2022-08-31T08:42:53.638Z,41.65
2022-08-31T08:43:53.654Z,42.16
2022-08-31T08:44:53.738Z,41.87
2022-08-31T08:45:53.848Z,41.25
2022-08-31T08:46:53.974Z,41.83
2022-08-31T08:47:53.967Z,41.33
2022-08-31T08:48:55.594Z,41.24
2022-08-31T08:49:54.807Z,41.20
2022-08-31T08:50:54.125Z,40.29
2022-08-31T08:51:54.231Z,39.92
2022-08-31T08:52:54.308Z,41.63
2022-08-31T08:53:54.382Z,40.43
2022-08-31T08:54:54.479Z,40.27
2022-08-31T08:55:54.561Z,42.36
2022-08-31T08:56:54.647Z,41.25
2022-08-31T08:57:54.738Z,42.16
2022-08-31T08:58:54.833Z,40.78
2022-08-31T08:59:54.962Z,41.69
2022-08-31T09:00:54.934Z,41.41
2022-08-31T09:01:55.100Z,42.01
2022-08-31T09:02:55.188Z,42.72
2022-08-31T09:03:55.184Z,42.35
2022-08-31T09:04:55.281Z,43.04
2022-08-31T09:05:55.364Z,42.13
2022-08-31T09:06:55.434Z,42.01
2022-08-31T09:07:55.520Z,42.08
2022-08-31T09:08:55.538Z,42.40
2022-08-31T09:09:55.629Z,42.50
2022-08-31T09:10:55.701Z,43.61
2022-08-31T09:11:55.792Z,42.32
2022-08-31T09:12:55.860Z,43.24
2022-08-31T09:13:55.947Z,43.21
2022-08-31T09:14:56.038Z,43.21
2022-08-31T09:15:56.128Z,42.22
2022-08-31T09:16:56.497Z,43.13
2022-08-31T09:17:59.721Z,41.81
2022-08-31T09:18:56.317Z,41.59
2022-08-31T09:19:56.312Z,42.36
2022-08-31T09:20:56.374Z,40.69
2022-08-31T09:21:56.450Z,41.30
2022-08-31T09:22:56.527Z,41.14
2022-08-31T09:23:56.612Z,42.27
2022-08-31T09:24:56.706Z,43.08
2022-08-31T09:25:56.783Z,42.68
2022-08-31T09:26:56.841Z,43.67
2022-08-31T09:27:56.912Z,42.94
2022-08-31T09:28:56.993Z,42.90
2022-08-31T09:29:57.076Z,42.07
2022-08-31T09:30:57.189Z,39.78
2022-08-31T09:31:57.168Z,40.88
2022-08-31T09:32:57.234Z,42.48
2022-08-31T09:33:57.302Z,42.11
2022-08-31T09:34:57.382Z,43.12
2022-08-31T09:35:57.475Z,42.38
2022-08-31T09:36:57.545Z,42.08
2022-08-31T09:37:57.613Z,41.16
2022-08-31T09:38:57.671Z,40.74
2022-08-31T09:39:57.764Z,41.17
2022-08-31T09:40:57.874Z,39.68
2022-08-31T09:41:57.922Z,39.56
2022-08-31T09:42:57.935Z,39.17
2022-08-31T09:43:57.983Z,39.31
2022-08-31T09:44:58.075Z,40.61
2022-08-31T09:45:58.076Z,41.57
2022-08-31T09:46:58.084Z,40.51
2022-08-31T09:47:58.139Z,39.12
2022-08-31T09:48:58.195Z,39.92
2022-08-31T09:49:58.253Z,40.29
2022-08-31T09:50:58.315Z,37.99
2022-08-31T09:51:58.403Z,37.84
2022-08-31T09:52:58.328Z,36.74
2022-08-31T09:53:58.374Z,37.19
2022-08-31T09:54:58.433Z,36.52
2022-08-31T09:55:58.490Z,36.44
2022-08-31T09:56:58.558Z,37.15
2022-08-31T09:57:58.594Z,37.76
2022-08-31T09:58:58.641Z,38.38
2022-08-31T09:59:58.717Z,38.38
2022-08-31T10:00:58.773Z,39.47
2022-08-31T10:01:58.801Z,38.85
2022-08-31T10:02:59.535Z,38.95
2022-08-31T10:03:58.776Z,39.94
2022-08-31T10:04:58.875Z,38.64
2022-08-31T10:05:58.801Z,38.54
2022-08-31T10:06:58.874Z,38.07
2022-08-31T10:07:58.931Z,38.78
2022-08-31T10:08:58.969Z,39.87
2022-08-31T10:09:59.038Z,40.03
2022-08-31T10:10:59.020Z,41.39
2022-08-31T10:11:59.086Z,41.59
2022-08-31T10:12:59.136Z,42.22
2022-08-31T10:13:59.219Z,43.26
2022-08-31T10:14:59.264Z,42.98
2022-08-31T10:15:59.429Z,43.70
2022-08-31T10:16:59.428Z,42.38
2022-08-31T10:17:59.486Z,42.52
2022-08-31T10:18:59.561Z,41.59
2022-08-31T10:19:59.653Z,42.16
2022-08-31T10:20:59.728Z,41.28
2022-08-31T10:21:59.824Z,39.95
2022-08-31T10:22:59.866Z,37.95
2022-08-31T10:23:59.938Z,39.17
2022-08-31T10:25:00.015Z,40.17
2022-08-31T10:26:00.096Z,40.88
2022-08-31T10:27:00.489Z,40.80
2022-08-31T10:28:00.179Z,41.36
2022-08-31T10:29:00.249Z,40.05
2022-08-31T10:30:00.329Z,41.02
2022-08-31T10:31:00.402Z,42.54
2022-08-31T10:32:00.458Z,42.07
2022-08-31T10:33:00.558Z,40.94
2022-08-31T10:34:00.621Z,40.92
2022-08-31T10:35:00.695Z,42.34
2022-08-31T10:36:00.786Z,41.36
2022-08-31T10:37:00.860Z,42.82
2022-08-31T10:38:00.935Z,41.25
2022-08-31T10:39:01.004Z,40.47
2022-08-31T10:40:10.844Z,40.80
2022-08-31T10:41:02.775Z,41.02
2022-08-31T10:42:03.875Z,42.05
2022-08-31T10:43:01.176Z,42.96
2022-08-31T10:44:01.263Z,43.26
2022-08-31T10:45:01.334Z,44.09
2022-08-31T10:46:01.447Z,43.04
2022-08-31T10:47:01.541Z,41.41
2022-08-31T10:48:01.620Z,41.53
2022-08-31T10:49:01.695Z,42.07
2022-08-31T10:50:01.795Z,42.01
2022-08-31T10:51:01.879Z,41.44
2022-08-31T10:52:01.960Z,41.83
2022-08-31T10:53:02.902Z,42.94
2022-08-31T10:54:02.155Z,43.10
2022-08-31T10:55:02.259Z,43.82
2022-08-31T10:56:02.359Z,45.00
2022-08-31T10:57:02.459Z,42.90
2022-08-31T10:58:02.530Z,43.22
2022-08-31T10:59:02.624Z,43.04
2022-08-31T11:00:02.781Z,44.99
2022-08-31T11:01:02.932Z,46.06
2022-08-31T11:02:03.017Z,45.64
2022-08-31T11:03:03.124Z,45.30
2022-08-31T11:04:03.252Z,45.60
2022-08-31T11:05:03.352Z,42.46
2022-08-31T11:06:03.454Z,44.45
2022-08-31T11:07:03.550Z,42.17
2022-08-31T11:08:03.648Z,40.74
2022-08-31T11:09:03.748Z,40.33
2022-08-31T11:10:03.868Z,42.08
2022-08-31T11:11:03.976Z,42.19
2022-08-31T11:12:04.075Z,41.39
2022-08-31T11:13:04.163Z,41.52
2022-08-31T11:14:04.254Z,43.63
2022-08-31T11:15:04.368Z,42.68
2022-08-31T11:16:04.573Z,43.10
2022-08-31T11:17:04.538Z,43.74
2022-08-31T11:18:05.594Z,44.95
2022-08-31T11:19:08.840Z,44.87
2022-08-31T11:20:04.823Z,44.00
2022-08-31T11:21:04.932Z,44.70
2022-08-31T11:22:05.019Z,45.61
2022-08-31T11:23:05.129Z,45.61
2022-08-31T11:24:05.244Z,44.93
2022-08-31T11:25:05.383Z,45.63
2022-08-31T11:26:05.489Z,44.81
2022-08-31T11:27:05.608Z,44.79
2022-08-31T11:28:05.719Z,44.18
2022-08-31T11:29:05.831Z,44.77
2022-08-31T11:30:05.978Z,43.74
2022-08-31T11:31:06.176Z,44.39
2022-08-31T11:32:06.176Z,41.60
2022-08-31T11:33:06.298Z,42.32
2022-08-31T11:34:15.905Z,39.54
2022-08-31T11:35:07.469Z,38.23
2022-08-31T11:36:07.512Z,39.89
2022-08-31T11:37:06.633Z,37.62
2022-08-31T11:38:06.717Z,39.95
2022-08-31T11:39:06.832Z,40.45
2022-08-31T11:40:06.963Z,40.09
2022-08-31T11:41:06.971Z,41.83
2022-08-31T11:42:07.069Z,43.04
2022-08-31T11:43:07.184Z,44.25
2022-08-31T11:44:07.277Z,44.25
2022-08-31T11:45:07.320Z,43.90
2022-08-31T11:46:07.478Z,43.40
2022-08-31T11:47:07.460Z,43.72
2022-08-31T11:48:07.562Z,42.94
2022-08-31T11:49:07.661Z,40.78
2022-08-31T11:50:07.799Z,40.03
2022-08-31T11:51:07.886Z,38.61
2022-08-31T11:52:07.968Z,39.62
2022-08-31T11:53:08.068Z,40.92
2022-08-31T11:54:08.153Z,40.68
2022-08-31T11:55:09.240Z,42.11
2022-08-31T11:56:08.326Z,42.60
2022-08-31T11:57:08.415Z,41.61
2022-08-31T11:58:08.505Z,42.71
2022-08-31T11:59:08.602Z,42.41
2022-08-31T12:00:08.730Z,42.36
2022-08-31T12:01:08.774Z,41.24
2022-08-31T12:02:08.906Z,40.34
2022-08-31T12:03:08.868Z,43.06
2022-08-31T12:04:08.961Z,42.27
2022-08-31T12:05:09.107Z,42.98
2022-08-31T12:06:09.163Z,43.67
2022-08-31T12:07:09.261Z,42.31
2022-08-31T12:08:09.361Z,42.80
2022-08-31T12:09:09.456Z,43.22
2022-08-31T12:10:09.553Z,43.62
2022-08-31T12:11:09.683Z,43.22
2022-08-31T12:12:09.779Z,44.19
2022-08-31T12:13:09.883Z,42.17
2022-08-31T12:14:09.994Z,41.95
2022-08-31T12:15:10.102Z,40.84
2022-08-31T12:16:10.337Z,41.10
2022-08-31T12:17:10.222Z,40.21
2022-08-31T12:18:10.306Z,39.50
2022-08-31T12:19:10.424Z,41.17
2022-08-31T12:20:10.519Z,39.09
2022-08-31T12:21:10.629Z,38.95
2022-08-31T12:22:10.719Z,38.93
2022-08-31T12:23:10.888Z,37.71
2022-08-31T12:24:10.827Z,36.04
2022-08-31T12:25:10.920Z,37.57
2022-08-31T12:26:11.013Z,39.11
2022-08-31T12:27:11.087Z,39.60
2022-08-31T12:28:11.191Z,39.97
2022-08-31T12:29:11.264Z,39.56
2022-08-31T12:30:11.339Z,39.00
2022-08-31T12:31:11.497Z,39.42
2022-08-31T12:32:11.471Z,39.37
2022-08-31T12:33:11.553Z,41.81
2022-08-31T12:34:11.665Z,43.54
2022-08-31T12:35:11.753Z,44.95
2022-08-31T12:36:11.851Z,43.08
2022-08-31T12:37:11.946Z,43.38
2022-08-31T12:38:12.054Z,44.22
2022-08-31T12:39:12.196Z,44.89
2022-08-31T12:40:12.404Z,43.58
2022-08-31T12:41:12.422Z,42.66
2022-08-31T12:42:12.530Z,43.26
2022-08-31T12:43:12.639Z,44.55
2022-08-31T12:44:14.315Z,43.66
2022-08-31T12:45:12.864Z,43.18
2022-08-31T12:46:13.033Z,43.73
2022-08-31T12:47:13.058Z,42.35
2022-08-31T12:48:13.159Z,40.62
2022-08-31T12:49:13.266Z,41.41
2022-08-31T12:50:13.822Z,40.45
2022-08-31T12:51:13.496Z,39.75
2022-08-31T12:52:13.597Z,40.07
2022-08-31T12:53:13.701Z,40.20
2022-08-31T12:54:13.810Z,41.33